createdAt,value
2017-01-05T00:01:05.570Z,1
2017-01-05T00:02:11.590Z,1
2017-01-05T00:03:17.617Z,0.9
2017-01-05T00:04:23.628Z,0.9
2017-01-05T00:05:29.650Z,1
2017-01-05T00:06:35.670Z,1
2017-01-05T00:07:41.687Z,1
2017-01-05T00:08:47.696Z,0.9
2017-01-05T00:09:53.718Z,0.9
2017-01-05T00:10:59.737Z,0.9
2017-01-05T00:12:05.755Z,1
2017-01-05T00:13:11.774Z,1
2017-01-05T00:14:17.798Z,1
2017-01-05T00:15:23.820Z,0.9
2017-01-05T00:16:29.840Z,1
2017-01-05T00:17:35.867Z,1
2017-01-05T00:18:41.898Z,1
2017-01-05T00:19:47.908Z,1.1
2017-01-05T00:20:53.921Z,1.1
2017-01-05T00:21:59.951Z,1.1
2017-01-05T00:23:05.971Z,1.1
2017-01-05T00:24:11.989Z,1.2
2017-01-05T00:25:18.001Z,1.2
2017-01-05T00:26:24.020Z,1.1
2017-01-05T00:27:30.045Z,1
2017-01-05T00:28:36.071Z,1
2017-01-05T00:29:42.087Z,1
2017-01-05T00:30:48.108Z,0.9
2017-01-05T00:31:54.132Z,0.9
2017-01-05T00:33:00.155Z,0.9
2017-01-05T00:34:06.170Z,1
2017-01-05T00:35:12.185Z,0.9
2017-01-05T00:36:18.203Z,0.9
2017-01-05T00:37:24.227Z,0.9
2017-01-05T00:38:30.244Z,0.9
2017-01-05T00:39:36.264Z,1
2017-01-05T00:40:42.285Z,0.9
2017-01-05T00:41:48.300Z,0.9
2017-01-05T00:42:54.324Z,0.8
2017-01-05T00:44:00.345Z,0.8
2017-01-05T00:45:06.358Z,0.8
2017-01-05T00:46:12.368Z,0.7
2017-01-05T00:47:18.391Z,0.7
2017-01-05T00:48:24.408Z,0.8
2017-01-05T00:49:30.441Z,0.8
2017-01-05T00:50:36.447Z,0.8
2017-01-05T00:51:42.471Z,0.8
2017-01-05T00:52:48.489Z,0.8
2017-01-05T00:53:54.513Z,0.8
2017-01-05T00:55:00.524Z,0.8
2017-01-05T00:56:06.542Z,0.8
2017-01-05T00:57:12.565Z,0.8
2017-01-05T00:58:18.593Z,0.9
2017-01-05T00:59:24.607Z,0.8
2017-01-05T01:00:30.631Z,0.9
2017-01-05T01:01:36.661Z,0.9
2017-01-05T01:02:42.678Z,1
2017-01-05T01:03:48.701Z,1
2017-01-05T01:04:54.718Z,1
2017-01-05T01:06:00.737Z,1
2017-01-05T01:07:06.753Z,0.9
2017-01-05T01:08:12.774Z,0.9
2017-01-05T01:09:18.797Z,0.9
2017-01-05T01:10:24.819Z,0.9
2017-01-05T01:11:30.831Z,0.9
2017-01-05T01:12:36.848Z,1
2017-01-05T01:13:42.874Z,1
2017-01-05T01:14:48.901Z,0.9
2017-01-05T01:15:54.918Z,0.9
2017-01-05T01:17:00.944Z,0.9
2017-01-05T01:18:06.966Z,0.9
2017-01-05T01:19:12.989Z,0.8
2017-01-05T01:20:19.001Z,0.8
2017-01-05T01:21:25.017Z,0.7
2017-01-05T01:22:31.036Z,0.8
2017-01-05T01:23:37.055Z,0.9
2017-01-05T01:24:43.079Z,0.9
2017-01-05T01:25:49.101Z,0.9
2017-01-05T01:26:55.122Z,0.9
2017-01-05T01:28:01.137Z,0.9
2017-01-05T01:29:07.163Z,0.8
2017-01-05T01:30:13.183Z,0.8
2017-01-05T01:31:19.201Z,0.8
2017-01-05T01:32:25.219Z,0.8
2017-01-05T01:33:31.242Z,0.8
2017-01-05T01:34:37.261Z,0.7
2017-01-05T01:35:43.275Z,0.6
2017-01-05T01:36:49.285Z,0.5
2017-01-05T01:37:55.311Z,0.5
2017-01-05T01:39:01.331Z,0.5
2017-01-05T01:40:07.341Z,0.5
2017-01-05T01:41:13.365Z,0.4
2017-01-05T01:42:19.387Z,0.4
2017-01-05T01:43:25.412Z,0.4
2017-01-05T01:44:31.424Z,0.4
2017-01-05T01:45:37.454Z,0.3
2017-01-05T01:46:43.468Z,0.3
2017-01-05T01:47:49.486Z,0.3
2017-01-05T01:48:55.499Z,0.3
2017-01-05T01:50:01.522Z,0.4
2017-01-05T01:51:07.553Z,0.3
2017-01-05T01:52:13.564Z,0.3
2017-01-05T01:53:19.570Z,0.3
2017-01-05T01:54:25.590Z,0.3
2017-01-05T01:55:31.608Z,0.2
2017-01-05T01:56:37.621Z,0.3
2017-01-05T01:57:43.641Z,0.3
2017-01-05T01:58:49.661Z,0.1
2017-01-05T01:59:55.689Z,0.2
2017-01-05T02:01:01.711Z,0.2
2017-01-05T02:02:07.731Z,0.3
2017-01-05T02:03:13.754Z,0.2
2017-01-05T02:04:19.771Z,0.2
2017-01-05T02:05:25.788Z,0.2
2017-01-05T02:06:31.799Z,0.2
2017-01-05T02:07:37.828Z,0.1
2017-01-05T02:08:43.848Z,0.1
2017-01-05T02:09:49.864Z,0.1
2017-01-05T02:10:55.893Z,0.2
2017-01-05T02:12:01.915Z,0.2
2017-01-05T02:13:07.933Z,0.3
2017-01-05T02:14:13.950Z,0.3
2017-01-05T02:15:19.967Z,0.2
2017-01-05T02:16:25.989Z,0.2
2017-01-05T02:17:32.012Z,0.2
2017-01-05T02:18:38.028Z,0.3
2017-01-05T02:19:44.057Z,0.3
2017-01-05T02:20:50.076Z,0.4
2017-01-05T02:21:56.094Z,0.4
2017-01-05T02:23:02.101Z,0.4
2017-01-05T02:24:08.119Z,0.3
2017-01-05T02:25:14.143Z,0.3
2017-01-05T02:26:20.162Z,0.4
2017-01-05T02:27:26.182Z,0.3
2017-01-05T02:28:32.207Z,0.3
2017-01-05T02:29:38.228Z,0.3
2017-01-05T02:30:44.246Z,0.2
2017-01-05T02:31:50.267Z,0.2
2017-01-05T02:32:56.283Z,0.3
2017-01-05T02:34:02.299Z,0.3
2017-01-05T02:35:08.315Z,0.3
2017-01-05T02:36:14.328Z,0.3
2017-01-05T02:37:20.347Z,0.2
2017-01-05T02:38:26.366Z,0.3
2017-01-05T02:39:32.374Z,0.3
2017-01-05T02:40:38.404Z,0.2
2017-01-05T02:41:44.422Z,0.2
2017-01-05T02:42:50.444Z,0.2
2017-01-05T02:43:56.456Z,0.1
2017-01-05T02:45:02.488Z,0.2
2017-01-05T02:46:08.506Z,0.3
2017-01-05T02:47:14.528Z,0.2
2017-01-05T02:48:20.542Z,0.3
2017-01-05T02:49:26.573Z,0.3
2017-01-05T02:50:32.588Z,0.3
2017-01-05T02:51:38.601Z,0.3
2017-01-05T02:52:44.609Z,0.3
2017-01-05T02:53:49.974Z,0.3
2017-01-05T02:54:55.996Z,0.3
2017-01-05T02:56:02.015Z,0.4
2017-01-05T02:57:08.034Z,0.3
2017-01-05T02:58:14.058Z,0.3
2017-01-05T02:59:20.080Z,0.3
2017-01-05T03:00:26.107Z,0.3
2017-01-05T03:01:32.124Z,0.3
2017-01-05T03:02:38.140Z,0.3
2017-01-05T03:03:44.162Z,0.3
2017-01-05T03:04:50.186Z,0.2
2017-01-05T03:05:56.211Z,0.3
2017-01-05T03:07:02.231Z,0.1
2017-01-05T03:08:08.251Z,0.2
2017-01-05T03:09:14.268Z,0.1
2017-01-05T03:10:20.288Z,0.1
2017-01-05T03:11:26.312Z,0.2
2017-01-05T03:12:32.332Z,0.2
2017-01-05T03:13:38.359Z,0.1
2017-01-05T03:14:44.390Z,0.2
2017-01-05T03:15:50.396Z,0.3
2017-01-05T03:16:56.412Z,0.2
2017-01-05T03:18:02.432Z,0.3
2017-01-05T03:19:08.445Z,0.3
2017-01-05T03:20:14.466Z,0.2
2017-01-05T03:21:20.484Z,0.3
2017-01-05T03:22:26.514Z,0.3
2017-01-05T03:23:32.535Z,0.2
2017-01-05T03:24:38.551Z,0.3
2017-01-05T03:25:44.581Z,0.3
2017-01-05T03:26:50.588Z,0.4
2017-01-05T03:27:56.599Z,0.4
2017-01-05T03:29:02.614Z,0.3
2017-01-05T03:30:08.643Z,0.4
2017-01-05T03:31:14.658Z,0.3
2017-01-05T03:32:20.674Z,0.3
2017-01-05T03:33:26.693Z,0.4
2017-01-05T03:34:32.715Z,0.4
2017-01-05T03:35:38.725Z,0.3
2017-01-05T03:36:44.747Z,0.2
2017-01-05T03:37:50.756Z,0.2
2017-01-05T03:38:56.784Z,0.1
2017-01-05T03:40:02.800Z,0.1
2017-01-05T03:41:08.817Z,0.2
2017-01-05T03:42:14.830Z,0.2
2017-01-05T03:43:20.852Z,0.2
2017-01-05T03:44:26.865Z,0.3
2017-01-05T03:45:32.882Z,0.2
2017-01-05T03:46:38.902Z,0.3
2017-01-05T03:47:44.923Z,0.3
2017-01-05T03:48:50.938Z,0.3
2017-01-05T03:49:56.960Z,0.2
2017-01-05T03:51:02.982Z,0.1
2017-01-05T03:52:09.005Z,0.2
2017-01-05T03:53:15.024Z,0
2017-01-05T03:54:21.056Z,0
2017-01-05T03:55:27.067Z,0
2017-01-05T03:56:33.079Z,0
2017-01-05T03:57:39.102Z,0
2017-01-05T03:58:45.118Z,0
2017-01-05T03:59:51.144Z,0
2017-01-05T04:00:57.165Z,-0.1
2017-01-05T04:02:03.181Z,-0.1
2017-01-05T04:03:09.197Z,-0.1
2017-01-05T04:04:15.215Z,-0.2
2017-01-05T04:05:21.235Z,-0.2
2017-01-05T04:06:27.251Z,-0.1
2017-01-05T04:07:33.278Z,-0.2
2017-01-05T04:08:39.307Z,-0.2
2017-01-05T04:09:45.327Z,-0.2
2017-01-05T04:10:51.351Z,-0.3
2017-01-05T04:11:57.374Z,-0.3
2017-01-05T04:13:03.393Z,-0.3
2017-01-05T04:14:09.413Z,-0.3
2017-01-05T04:15:15.435Z,-0.4
2017-01-05T04:16:21.461Z,-0.3
2017-01-05T04:17:27.489Z,-0.4
2017-01-05T04:18:33.512Z,-0.4
2017-01-05T04:19:39.534Z,-0.4
2017-01-05T04:20:45.554Z,-0.5
2017-01-05T04:21:51.580Z,-0.4
2017-01-05T04:22:57.597Z,-0.4
2017-01-05T04:24:03.614Z,-0.4
2017-01-05T04:25:09.638Z,-0.5
2017-01-05T04:26:15.662Z,-0.5
2017-01-05T04:27:21.686Z,-0.4
2017-01-05T04:28:27.702Z,-0.5
2017-01-05T04:29:33.733Z,-0.5
2017-01-05T04:30:39.747Z,-0.5
2017-01-05T04:31:45.762Z,-0.5
2017-01-05T04:32:51.779Z,-0.6
2017-01-05T04:33:57.805Z,-0.5
2017-01-05T04:35:03.814Z,-0.5
2017-01-05T04:36:09.844Z,-0.6
2017-01-05T04:37:15.866Z,-0.6
2017-01-05T04:38:21.896Z,-0.7
2017-01-05T04:39:27.912Z,-0.7
2017-01-05T04:40:33.928Z,-0.6
2017-01-05T04:41:39.959Z,-0.6
2017-01-05T04:42:45.983Z,-0.6
2017-01-05T04:43:52.001Z,-0.7
2017-01-05T04:44:58.020Z,-0.7
2017-01-05T04:46:04.050Z,-0.7
2017-01-05T04:47:10.073Z,-0.6
2017-01-05T04:48:16.088Z,-0.7
2017-01-05T04:49:22.100Z,-0.7
2017-01-05T04:50:28.122Z,-0.7
2017-01-05T04:51:34.146Z,-0.7
2017-01-05T04:52:40.171Z,-0.7
2017-01-05T04:53:46.201Z,-0.7
2017-01-05T04:54:52.210Z,-0.6
2017-01-05T04:55:58.233Z,-0.7
2017-01-05T04:57:04.248Z,-0.6
2017-01-05T04:58:10.278Z,-0.5
2017-01-05T04:59:16.294Z,-0.5
2017-01-05T05:00:22.320Z,-0.6
2017-01-05T05:01:28.347Z,-0.6
2017-01-05T05:02:34.376Z,-0.6
2017-01-05T05:03:40.390Z,-0.7
2017-01-05T05:04:46.409Z,-0.6
2017-01-05T05:05:52.433Z,-0.7
2017-01-05T05:06:58.464Z,-0.7
2017-01-05T05:08:04.490Z,-0.7
2017-01-05T05:09:10.515Z,-0.7
2017-01-05T05:10:16.534Z,-0.7
2017-01-05T05:11:22.550Z,-0.7
2017-01-05T05:12:28.580Z,-0.7
2017-01-05T05:13:34.604Z,-0.8
2017-01-05T05:14:40.632Z,-0.8
2017-01-05T05:15:46.646Z,-0.8
2017-01-05T05:16:52.666Z,-0.9
2017-01-05T05:17:58.688Z,-0.9
2017-01-05T05:19:04.710Z,-0.9
2017-01-05T05:20:10.733Z,-0.9
2017-01-05T05:21:16.756Z,-1
2017-01-05T05:22:22.778Z,-1
2017-01-05T05:23:28.806Z,-1
2017-01-05T05:24:34.820Z,-0.9
2017-01-05T05:25:40.841Z,-0.9
2017-01-05T05:26:46.868Z,-0.9
2017-01-05T05:27:52.893Z,-1
2017-01-05T05:28:58.908Z,-1
2017-01-05T05:30:04.924Z,-1
2017-01-05T05:31:10.949Z,-1
2017-01-05T05:32:16.975Z,-1
2017-01-05T05:33:22.993Z,-1.1
2017-01-05T05:34:29.014Z,-1.1
2017-01-05T05:35:35.033Z,-1.1
2017-01-05T05:36:41.058Z,-1.2
2017-01-05T05:37:47.087Z,-1.2
2017-01-05T05:38:53.104Z,-1.2
2017-01-05T05:39:59.124Z,-1.2
2017-01-05T05:41:05.142Z,-1.1
2017-01-05T05:42:11.160Z,-1.2
2017-01-05T05:43:17.181Z,-1.2
2017-01-05T05:44:23.205Z,-1.2
2017-01-05T05:45:29.224Z,-1.2
2017-01-05T05:46:35.251Z,-1.2
2017-01-05T05:47:41.274Z,-1.2
2017-01-05T05:48:47.295Z,-1.1
2017-01-05T05:49:53.318Z,-1.2
2017-01-05T05:50:59.345Z,-1.3
2017-01-05T05:52:05.357Z,-1.2
2017-01-05T05:53:11.385Z,-1.2
2017-01-05T05:54:17.408Z,-1.2
2017-01-05T05:55:23.430Z,-1.2
2017-01-05T05:56:29.448Z,-1.2
2017-01-05T05:57:35.474Z,-1.3
2017-01-05T05:58:41.499Z,-1.3
2017-01-05T05:59:47.518Z,-1.3
2017-01-05T06:00:53.541Z,-1.4
2017-01-05T06:01:59.572Z,-1.3
2017-01-05T06:03:05.581Z,-1.4
2017-01-05T06:04:11.607Z,-1.3
2017-01-05T06:05:17.630Z,-1.4
2017-01-05T06:06:23.663Z,-1.4
2017-01-05T06:07:29.015Z,-1.2
2017-01-05T06:08:35.038Z,-1.3
2017-01-05T06:09:41.060Z,-1.4
2017-01-05T06:10:47.071Z,-1.4
2017-01-05T06:11:53.093Z,-1.3
2017-01-05T06:12:59.116Z,-1.4
2017-01-05T06:14:05.142Z,-1.4
2017-01-05T06:15:11.162Z,-1.4
2017-01-05T06:16:17.187Z,-1.3
2017-01-05T06:17:23.212Z,-1.3
2017-01-05T06:18:29.231Z,-1.3
2017-01-05T06:19:35.254Z,-1.3
2017-01-05T06:20:41.276Z,-1.2
2017-01-05T06:21:47.298Z,-1.2
2017-01-05T06:22:53.318Z,-1.1
2017-01-05T06:23:59.338Z,-1.2
2017-01-05T06:25:05.369Z,-1.3
2017-01-05T06:26:11.386Z,-1.2
2017-01-05T06:27:17.408Z,-1.1
2017-01-05T06:28:23.439Z,-1.1
2017-01-05T06:29:29.467Z,-1.1
2017-01-05T06:30:35.483Z,-1.2
2017-01-05T06:31:41.501Z,-1.1
2017-01-05T06:32:47.533Z,-1.2
2017-01-05T06:33:53.552Z,-1.1
2017-01-05T06:34:59.564Z,-1.1
2017-01-05T06:36:05.581Z,-1.2
2017-01-05T06:37:11.612Z,-1.3
2017-01-05T06:38:17.629Z,-1.2
2017-01-05T06:39:23.652Z,-1.2
2017-01-05T06:40:29.674Z,-1.2
2017-01-05T06:41:35.702Z,-1.2
2017-01-05T06:42:41.717Z,-1.2
2017-01-05T06:43:47.741Z,-1.2
2017-01-05T06:44:53.763Z,-1.3
2017-01-05T06:45:59.789Z,-1.3
2017-01-05T06:47:05.815Z,-1.4
2017-01-05T06:48:11.838Z,-1.3
2017-01-05T06:49:17.854Z,-1.3
2017-01-05T06:50:23.889Z,-1.3
2017-01-05T06:51:29.906Z,-1.3
2017-01-05T06:52:35.922Z,-1.3
2017-01-05T06:53:41.943Z,-1.3
2017-01-05T06:54:47.969Z,-1.3
2017-01-05T06:55:53.988Z,-1.4
2017-01-05T06:57:00.007Z,-1.4
2017-01-05T06:58:06.034Z,-1.4
2017-01-05T06:59:12.061Z,-1.4
2017-01-05T07:00:18.072Z,-1.4
2017-01-05T07:01:24.093Z,-1.4
2017-01-05T07:02:30.114Z,-1.4
2017-01-05T07:03:36.136Z,-1.4
2017-01-05T07:04:42.156Z,-1.4
2017-01-05T07:05:48.176Z,-1.3
2017-01-05T07:06:54.201Z,-1.3
2017-01-05T07:08:00.226Z,-1.3
2017-01-05T07:09:06.243Z,-1.2
2017-01-05T07:10:12.265Z,-1.2
2017-01-05T07:11:18.275Z,-1.2
2017-01-05T07:12:24.302Z,-1.2
2017-01-05T07:13:30.330Z,-1.2
2017-01-05T07:14:36.346Z,-1.3
2017-01-05T07:15:42.372Z,-1.4
2017-01-05T07:16:48.422Z,-1.2
2017-01-05T07:17:54.428Z,-1.3
2017-01-05T07:19:00.444Z,-1.2
2017-01-05T07:20:06.468Z,-1.2
2017-01-05T07:21:12.484Z,-1.1
2017-01-05T07:22:18.501Z,-1.1
2017-01-05T07:23:24.523Z,-1.1
2017-01-05T07:24:30.551Z,-1.1
2017-01-05T07:25:36.576Z,-1.1
2017-01-05T07:26:42.592Z,-1.1
2017-01-05T07:27:48.615Z,-1.1
2017-01-05T07:28:54.635Z,-1.1
2017-01-05T07:30:00.659Z,-1.1
2017-01-05T07:31:06.685Z,-1.1
2017-01-05T07:32:12.715Z,-1.1
2017-01-05T07:33:18.741Z,-1.2
2017-01-05T07:34:24.764Z,-1.1
2017-01-05T07:35:30.786Z,-1.1
2017-01-05T07:36:36.798Z,-1.1
2017-01-05T07:37:42.830Z,-1.1
2017-01-05T07:38:48.849Z,-1
2017-01-05T07:39:54.865Z,-1.1
2017-01-05T07:41:00.881Z,-1.1
2017-01-05T07:42:06.913Z,-1
2017-01-05T07:43:12.930Z,-1.1
2017-01-05T07:44:18.951Z,-1.1
2017-01-05T07:45:24.972Z,-1.1
2017-01-05T07:46:31.002Z,-1.1
2017-01-05T07:47:37.024Z,-1.2
2017-01-05T07:48:43.052Z,-1.1
2017-01-05T07:49:49.070Z,-1.2
2017-01-05T07:50:55.096Z,-1.3
2017-01-05T07:52:01.120Z,-1.2
2017-01-05T07:53:07.143Z,-1.2
2017-01-05T07:54:13.161Z,-1.1
2017-01-05T07:55:19.184Z,-1.2
2017-01-05T07:56:25.202Z,-1.2
2017-01-05T07:57:31.218Z,-1.2
2017-01-05T07:58:37.245Z,-1.2
2017-01-05T07:59:43.271Z,-1.2
2017-01-05T08:00:49.298Z,-1.3
2017-01-05T08:01:55.318Z,-1.3
2017-01-05T08:03:01.339Z,-1.3
2017-01-05T08:04:07.360Z,-1.3
2017-01-05T08:05:13.390Z,-1.3
2017-01-05T08:06:19.403Z,-1.3
2017-01-05T08:07:25.431Z,-1.3
2017-01-05T08:08:31.453Z,-1.2
2017-01-05T08:09:37.482Z,-1.2
2017-01-05T08:10:43.495Z,-1.2
2017-01-05T08:11:49.513Z,-1.2
2017-01-05T08:12:55.535Z,-1.2
2017-01-05T08:14:01.552Z,-1.2
2017-01-05T08:15:07.577Z,-1.1
2017-01-05T08:16:13.597Z,-1.1
2017-01-05T08:17:19.616Z,-1.2
2017-01-05T08:18:25.635Z,-1.2
2017-01-05T08:19:31.670Z,-1.1
2017-01-05T08:20:37.689Z,-1.1
2017-01-05T08:21:43.710Z,-1.1
2017-01-05T08:22:49.731Z,-0.9
2017-01-05T08:23:55.751Z,-0.9
2017-01-05T08:25:01.772Z,-0.9
2017-01-05T08:26:07.797Z,-0.8
2017-01-05T08:27:13.831Z,-0.7
2017-01-05T08:28:19.848Z,-0.6
2017-01-05T08:29:25.937Z,-0.5
2017-01-05T08:30:31.914Z,-0.4
2017-01-05T08:31:37.934Z,-0.4
2017-01-05T08:32:43.943Z,-0.4
2017-01-05T08:33:49.965Z,-0.3
2017-01-05T08:34:55.993Z,-0.3
2017-01-05T08:36:02.040Z,-0.4
2017-01-05T08:37:08.062Z,-0.6
2017-01-05T08:38:14.074Z,-0.7
2017-01-05T08:39:20.099Z,-0.7
2017-01-05T08:40:26.123Z,-0.8
2017-01-05T08:41:32.147Z,-0.8
2017-01-05T08:42:38.169Z,-0.8
2017-01-05T08:43:44.193Z,-0.8
2017-01-05T08:44:50.218Z,-0.7
2017-01-05T08:45:56.240Z,-0.7
2017-01-05T08:47:02.267Z,-0.4
2017-01-05T08:48:08.290Z,-0.4
2017-01-05T08:49:14.312Z,-0.2
2017-01-05T08:50:20.327Z,-0.2
2017-01-05T08:51:26.353Z,-0.1
2017-01-05T08:52:32.377Z,-0.1
2017-01-05T08:53:38.400Z,-0.3
2017-01-05T08:54:44.417Z,-0.3
2017-01-05T08:55:50.447Z,-0.3
2017-01-05T08:56:56.473Z,-0.4
2017-01-05T08:58:02.498Z,-0.4
2017-01-05T08:59:08.515Z,-0.5
2017-01-05T09:00:14.526Z,-0.6
2017-01-05T09:01:20.559Z,-0.6
2017-01-05T09:02:26.610Z,-0.7
2017-01-05T09:03:32.629Z,-0.6
2017-01-05T09:04:38.644Z,-0.6
2017-01-05T09:05:44.678Z,-0.9
2017-01-05T09:06:50.700Z,-0.9
2017-01-05T09:07:56.723Z,-1
2017-01-05T09:09:02.736Z,-0.8
2017-01-05T09:10:08.766Z,-0.8
2017-01-05T09:11:14.780Z,-0.6
2017-01-05T09:12:20.799Z,-0.7
2017-01-05T09:13:26.850Z,-0.4
2017-01-05T09:14:32.881Z,-0.5
2017-01-05T09:15:38.894Z,-0.5
2017-01-05T09:16:44.912Z,-0.3
2017-01-05T09:17:50.939Z,-0.3
2017-01-05T09:18:56.952Z,-0.3
2017-01-05T09:20:02.966Z,0
2017-01-05T09:21:08.992Z,-0.1
2017-01-05T09:22:15.006Z,0.1
2017-01-05T09:23:21.025Z,0.1
2017-01-05T09:24:27.057Z,0.2
2017-01-05T09:25:33.076Z,0.2
2017-01-05T09:26:39.187Z,0.2
2017-01-05T09:27:45.198Z,0.1
2017-01-05T09:28:51.225Z,-0.1
2017-01-05T09:29:57.244Z,-0.1
2017-01-05T09:31:03.255Z,0
2017-01-05T09:32:09.275Z,0
2017-01-05T09:33:15.304Z,0.1
2017-01-05T09:34:21.320Z,0.3
2017-01-05T09:35:27.340Z,0.5
2017-01-05T09:36:33.363Z,0.3
2017-01-05T09:37:39.384Z,0.5
2017-01-05T09:38:45.398Z,0.6
2017-01-05T09:39:51.421Z,0.7
2017-01-05T09:40:57.449Z,0.8
2017-01-05T09:42:03.459Z,0.9
2017-01-05T09:43:09.476Z,0.9
2017-01-05T09:44:15.500Z,0.9
2017-01-05T09:45:21.519Z,0.8
2017-01-05T09:46:27.542Z,0.8
2017-01-05T09:47:33.562Z,1
2017-01-05T09:48:39.579Z,1
2017-01-05T09:49:45.594Z,0.9
2017-01-05T09:50:51.616Z,1.1
2017-01-05T09:51:57.638Z,1.2
2017-01-05T09:53:03.653Z,1.4
2017-01-05T09:54:09.683Z,1.4
2017-01-05T09:55:15.700Z,1.6
2017-01-05T09:56:21.960Z,1.4
2017-01-05T09:57:27.976Z,1.3
2017-01-05T09:58:33.991Z,1.4
2017-01-05T09:59:40.005Z,1.8
2017-01-05T10:00:46.021Z,1.7
2017-01-05T10:01:52.037Z,1.6
2017-01-05T10:02:58.053Z,1.8
2017-01-05T10:04:04.073Z,1.7
2017-01-05T10:05:10.093Z,2
2017-01-05T10:06:16.120Z,1.7
2017-01-05T10:07:22.139Z,1.9
2017-01-05T10:08:28.165Z,1.8
2017-01-05T10:09:34.183Z,1.7
2017-01-05T10:10:40.203Z,1.6
2017-01-05T10:11:46.225Z,1.5
2017-01-05T10:12:52.249Z,1.9
2017-01-05T10:13:58.271Z,2.1
2017-01-05T10:15:04.292Z,2
2017-01-05T10:16:10.319Z,1.7
2017-01-05T10:17:16.332Z,2
2017-01-05T10:18:22.421Z,1.8
2017-01-05T10:19:28.393Z,1.9
2017-01-05T10:20:34.421Z,1.7
2017-01-05T10:21:40.433Z,2
2017-01-05T10:22:46.458Z,2.1
2017-01-05T10:23:52.473Z,2.2
2017-01-05T10:24:58.497Z,2
2017-01-05T10:26:04.517Z,2.4
2017-01-05T10:27:10.537Z,2.6
2017-01-05T10:28:16.551Z,2.6
2017-01-05T10:29:26.190Z,2.7
2017-01-05T10:30:32.205Z,2.6
2017-01-05T10:31:38.222Z,2.3
2017-01-05T10:32:44.247Z,2
2017-01-05T10:33:50.279Z,2.1
2017-01-05T10:34:56.295Z,2.1
2017-01-05T10:36:02.679Z,2.3
2017-01-05T10:37:08.729Z,2.2
2017-01-05T10:38:14.759Z,2.1
2017-01-05T10:39:20.773Z,1.9
2017-01-05T10:40:26.791Z,2.1
2017-01-05T10:41:32.814Z,2.3
2017-01-05T10:42:38.839Z,2.1
2017-01-05T10:43:44.856Z,2.3
2017-01-05T10:44:50.868Z,2.6
2017-01-05T10:45:56.890Z,2.5
2017-01-05T10:47:02.913Z,2.5
2017-01-05T10:48:08.932Z,2.8
2017-01-05T10:49:14.949Z,2.8
2017-01-05T10:50:20.968Z,2.8
2017-01-05T10:51:26.985Z,3
2017-01-05T10:52:32.999Z,3.3
2017-01-05T10:53:39.015Z,3
2017-01-05T10:54:45.041Z,3.3
2017-01-05T10:55:51.064Z,3.6
2017-01-05T10:56:57.099Z,3.8
2017-01-05T10:58:03.103Z,3.2
2017-01-05T10:59:09.124Z,3
2017-01-05T11:00:15.142Z,3.5
2017-01-05T11:01:21.170Z,3.3
2017-01-05T11:02:27.183Z,3.1
2017-01-05T11:03:33.201Z,3.2
2017-01-05T11:04:39.220Z,3.5
2017-01-05T11:05:45.253Z,3.2
2017-01-05T11:06:51.261Z,2.7
2017-01-05T11:07:57.290Z,3.1
2017-01-05T11:09:03.306Z,2.9
2017-01-05T11:10:09.321Z,3.4
2017-01-05T11:11:15.345Z,3.2
2017-01-05T11:12:21.372Z,3.2
2017-01-05T11:13:27.390Z,3.3
2017-01-05T11:14:33.413Z,3.4
2017-01-05T11:15:39.438Z,3.1
2017-01-05T11:16:45.452Z,3.6
2017-01-05T11:17:51.474Z,3.7
2017-01-05T11:18:57.492Z,3.5
2017-01-05T11:20:03.681Z,3.6
2017-01-05T11:21:09.700Z,3.5
2017-01-05T11:22:15.725Z,3.4
2017-01-05T11:23:21.747Z,3.4
2017-01-05T11:24:27.769Z,3.4
2017-01-05T11:25:33.784Z,3.6
2017-01-05T11:26:39.807Z,3.5
2017-01-05T11:27:45.986Z,3.1
2017-01-05T11:28:52.001Z,3.4
2017-01-05T11:29:58.022Z,3
2017-01-05T11:31:04.133Z,3.3
2017-01-05T11:32:10.149Z,3.2
2017-01-05T11:33:16.174Z,3.4
2017-01-05T11:34:22.447Z,3.8
2017-01-05T11:35:28.455Z,3.2
2017-01-05T11:36:34.472Z,3.5
2017-01-05T11:37:40.488Z,3.6
2017-01-05T11:38:46.510Z,3.4
2017-01-05T11:39:52.785Z,3.7
2017-01-05T11:40:58.809Z,3.3
2017-01-05T11:42:04.824Z,3.2
2017-01-05T11:43:10.851Z,3.5
2017-01-05T11:44:16.867Z,3.5
2017-01-05T11:45:22.890Z,3.8
2017-01-05T11:46:28.905Z,3.5
2017-01-05T11:47:34.920Z,3.5
2017-01-05T11:48:40.943Z,3.5
2017-01-05T11:49:46.957Z,3.8
2017-01-05T11:50:53.007Z,4
2017-01-05T11:51:59.033Z,3.9
2017-01-05T11:53:05.056Z,4.2
2017-01-05T11:54:11.072Z,4.4
2017-01-05T11:55:17.087Z,4.2
2017-01-05T11:56:23.104Z,3.8
2017-01-05T11:57:29.119Z,3.5
2017-01-05T11:58:35.140Z,3.6
2017-01-05T11:59:41.169Z,3
2017-01-05T12:00:47.190Z,3.3
2017-01-05T12:01:53.218Z,3.5
2017-01-05T12:02:59.238Z,4
2017-01-05T12:04:05.258Z,4.3
2017-01-05T12:05:11.276Z,4.2
2017-01-05T12:06:17.295Z,4.2
2017-01-05T12:07:23.312Z,4.2
2017-01-05T12:08:29.331Z,4.2
2017-01-05T12:09:35.351Z,3.8
2017-01-05T12:10:41.381Z,4.2
2017-01-05T12:11:47.395Z,4.2
2017-01-05T12:12:53.407Z,3.5
2017-01-05T12:13:59.435Z,3.7
2017-01-05T12:15:05.449Z,3.9
2017-01-05T12:16:11.466Z,3.5
2017-01-05T12:17:17.481Z,4
2017-01-05T12:18:23.508Z,4.1
2017-01-05T12:19:29.524Z,3.6
2017-01-05T12:20:35.544Z,3.4
2017-01-05T12:21:41.632Z,3.7
2017-01-05T12:22:47.655Z,4
2017-01-05T12:23:53.695Z,3.2
2017-01-05T12:24:59.698Z,3.6
2017-01-05T12:26:05.733Z,3.2
2017-01-05T12:27:11.863Z,3.3
2017-01-05T12:28:17.891Z,3.6
2017-01-05T12:29:23.935Z,4
2017-01-05T12:30:29.937Z,3.9
2017-01-05T12:31:35.963Z,3.7
2017-01-05T12:32:41.982Z,3.7
2017-01-05T12:33:48.007Z,3.7
2017-01-05T12:34:54.029Z,3.5
2017-01-05T12:36:00.062Z,3.6
2017-01-05T12:37:06.169Z,3.5
2017-01-05T12:38:12.189Z,3.3
2017-01-05T12:39:18.210Z,3.5
2017-01-05T12:40:24.235Z,3.4
2017-01-05T12:41:30.252Z,3.1
2017-01-05T12:42:36.275Z,3.3
2017-01-05T12:43:42.299Z,3.5
2017-01-05T12:44:48.312Z,3.5
2017-01-05T12:45:54.330Z,3.2
2017-01-05T12:47:00.356Z,2.8
2017-01-05T12:48:06.373Z,2.8
2017-01-05T12:49:12.398Z,2.7
2017-01-05T12:50:18.431Z,2.7
2017-01-05T12:51:24.445Z,2.4
2017-01-05T12:52:30.494Z,2.7
2017-01-05T12:53:36.484Z,2.5
2017-01-05T12:54:42.497Z,2.3
2017-01-05T12:55:48.519Z,2.1
2017-01-05T12:56:54.541Z,2.3
2017-01-05T12:58:00.562Z,2
2017-01-05T12:59:06.581Z,1.9
2017-01-05T13:00:12.599Z,1.9
2017-01-05T13:01:18.609Z,1.9
2017-01-05T13:02:24.631Z,1.4
2017-01-05T13:03:30.646Z,1.3
2017-01-05T13:04:36.664Z,1.4
2017-01-05T13:05:42.680Z,1.3
2017-01-05T13:06:48.704Z,1.3
2017-01-05T13:07:54.726Z,1.5
2017-01-05T13:09:00.761Z,1.5
2017-01-05T13:10:06.773Z,1.6
2017-01-05T13:11:12.796Z,1.5
2017-01-05T13:12:18.824Z,1.2
2017-01-05T13:13:24.842Z,0.9
2017-01-05T13:14:30.864Z,1.2
2017-01-05T13:15:36.885Z,0.9
2017-01-05T13:16:43.138Z,1
2017-01-05T13:17:49.159Z,0.7
2017-01-05T13:18:55.173Z,0.8
2017-01-05T13:20:01.192Z,0.8
2017-01-05T13:21:07.211Z,0.8
2017-01-05T13:22:13.233Z,0.7
2017-01-05T13:23:19.262Z,0.6
2017-01-05T13:24:25.283Z,0.6
2017-01-05T13:25:31.306Z,0.7
2017-01-05T13:26:37.321Z,0.8
2017-01-05T13:27:43.347Z,0.7
2017-01-05T13:28:49.367Z,0.7
2017-01-05T13:29:55.397Z,0.9
2017-01-05T13:31:01.417Z,0.7
2017-01-05T13:32:07.635Z,0.4
2017-01-05T13:33:13.648Z,0.4
2017-01-05T13:34:19.675Z,0.5
2017-01-05T13:35:25.696Z,0.5
2017-01-05T13:36:31.708Z,0.4
2017-01-05T13:37:37.733Z,0.5
2017-01-05T13:38:43.768Z,0.8
2017-01-05T13:39:49.781Z,0.8
2017-01-05T13:40:55.844Z,0.7
2017-01-05T13:42:01.856Z,0.5
2017-01-05T13:43:07.880Z,0.5
2017-01-05T13:44:13.900Z,0.5
2017-01-05T13:45:19.927Z,0.3
2017-01-05T13:46:25.939Z,0.3
2017-01-05T13:47:31.956Z,0.2
2017-01-05T13:48:37.977Z,0.1
2017-01-05T13:49:43.998Z,0
2017-01-05T13:50:50.029Z,-0.2
2017-01-05T13:51:56.057Z,-0.2
2017-01-05T13:53:02.065Z,-0.4
2017-01-05T13:54:08.086Z,-0.2
2017-01-05T13:55:14.111Z,-0.1
2017-01-05T13:56:20.135Z,0
2017-01-05T13:57:26.151Z,-0.1
2017-01-05T13:58:32.171Z,0
2017-01-05T13:59:38.200Z,-0.1
2017-01-05T14:00:44.216Z,-0.1
2017-01-05T14:01:50.234Z,0
2017-01-05T14:02:56.261Z,-0.1
2017-01-05T14:04:02.280Z,-0.4
2017-01-05T14:05:08.306Z,-0.3
2017-01-05T14:06:14.317Z,-0.3
2017-01-05T14:07:20.349Z,-0.4
2017-01-05T14:08:26.372Z,-0.6
2017-01-05T14:09:32.393Z,-0.6
2017-01-05T14:10:38.415Z,-0.6
2017-01-05T14:11:44.435Z,-0.7
2017-01-05T14:12:50.456Z,-0.7
2017-01-05T14:13:56.475Z,-0.6
2017-01-05T14:15:02.489Z,-0.8
2017-01-05T14:16:08.507Z,-0.8
2017-01-05T14:17:14.537Z,-0.6
2017-01-05T14:18:20.560Z,-0.5
2017-01-05T14:19:26.593Z,-0.6
2017-01-05T14:20:32.603Z,-0.6
2017-01-05T14:21:38.631Z,-0.6
2017-01-05T14:22:44.655Z,-0.9
2017-01-05T14:23:50.674Z,-1
2017-01-05T14:24:56.690Z,-1.1
2017-01-05T14:26:02.713Z,-1.1
2017-01-05T14:27:08.736Z,-0.9
2017-01-05T14:28:14.755Z,-1.1
2017-01-05T14:29:20.777Z,-1
2017-01-05T14:30:26.800Z,-1.1
2017-01-05T14:31:32.830Z,-1.1
2017-01-05T14:32:38.848Z,-1.1
2017-01-05T14:33:44.864Z,-1.1
2017-01-05T14:34:50.890Z,-1.3
2017-01-05T14:35:56.913Z,-1.3
2017-01-05T14:37:02.942Z,-1.2
2017-01-05T14:38:08.960Z,-1.2
2017-01-05T14:39:14.987Z,-1
2017-01-05T14:40:21.013Z,-1
2017-01-05T14:41:27.029Z,-1
2017-01-05T14:42:33.046Z,-1
2017-01-05T14:43:39.069Z,-1.1
2017-01-05T14:44:45.097Z,-1
2017-01-05T14:45:51.113Z,-1.1
2017-01-05T14:46:57.143Z,-1.2
2017-01-05T14:48:03.166Z,-1.3
2017-01-05T14:49:09.195Z,-1.1
2017-01-05T14:50:15.207Z,-1.3
2017-01-05T14:51:21.233Z,-1.3
2017-01-05T14:52:27.254Z,-1.4
2017-01-05T14:53:33.279Z,-1.3
2017-01-05T14:54:39.306Z,-1.1
2017-01-05T14:55:45.332Z,-1.1
2017-01-05T14:56:51.352Z,-1.2
2017-01-05T14:57:57.378Z,-1.5
2017-01-05T14:59:03.400Z,-1.5
2017-01-05T15:00:09.424Z,-1.5
2017-01-05T15:01:15.433Z,-1.4